Time;durP1;ratioP1;P1;durP2;ratioP2;P2;SDS_P1;SDS_P2;PMS_P1;PMS_P2;Temp;Humidity;BMP_temperature;BMP_pressure;BME280_temperature;BME280_humidity;BME280_pressure;Samples;Min_cycle;Max_cycle;Signal;HPM_P1;HPM_P2
2021/12/29 00:00:24;;;;;;;39.43;35.43;;;;;;;;;;4955743;29;20443;-90
2021/12/29 00:02:51;;;;;;;37.83;34.23;;;;;;;;;;4955445;29;20903;-90
2021/12/29 00:05:20;;;;;;;40.10;36.30;;;;;;;;;;4955434;29;20433;-89
2021/12/29 00:07:48;;;;;;;40.30;36.33;;;;;;;;;;4955303;29;20851;-88
2021/12/29 00:10:15;;;;;;;41.67;37.27;;;;;;;;;;4955758;29;20466;-90
2021/12/29 00:12:47;;;;;;;41.63;37.23;;;;;;;;;;4955495;29;20503;-89
2021/12/29 00:15:16;;;;;;;42.80;38.23;;;;;;;;;;4955394;29;20914;-90
2021/12/29 00:17:45;;;;;;;43.70;38.83;;;;;;;;;;4955922;28;20540;-89
2021/12/29 00:20:14;;;;;;;44.97;40.23;;;;;;;;;;4959243;29;20535;-89
2021/12/29 00:22:42;;;;;;;43.77;38.80;;;;;;;;;;4959378;29;20782;-91
2021/12/29 00:25:11;;;;;;;49.13;39.20;;;;;;;;;;4959140;29;20451;-90
2021/12/29 00:27:39;;;;;;;48.17;39.63;;;;;;;;;;4958995;29;21008;-90
2021/12/29 00:30:07;;;;;;;45.20;37.20;;;;;;;;;;4959023;29;20462;-90
2021/12/29 00:32:35;;;;;;;44.47;37.10;;;;;;;;;;4959362;29;20443;-89
2021/12/29 00:35:02;;;;;;;42.87;36.70;;;;;;;;;;4959237;29;20446;-90
2021/12/29 00:37:30;;;;;;;43.17;36.83;;;;;;;;;;4941838;29;20449;-90
2021/12/29 00:39:59;;;;;;;54.30;40.13;;;;;;;;;;4941831;29;20829;-89
2021/12/29 00:42:26;;;;;;;40.90;36.60;;;;;;;;;;4958615;29;20439;-90
2021/12/29 00:44:54;;;;;;;42.50;37.10;;;;;;;;;;4941761;29;20464;-90
2021/12/29 00:47:22;;;;;;;52.57;40.83;;;;;;;;;;4958915;29;20447;-91
2021/12/29 00:49:49;;;;;;;41.70;36.60;;;;;;;;;;4942044;29;20483;-89
2021/12/29 00:52:17;;;;;;;44.47;38.37;;;;;;;;;;4959297;29;20460;-89
2021/12/29 00:54:45;;;;;;;44.57;38.53;;;;;;;;;;4941433;29;20450;-90
2021/12/29 00:57:14;;;;;;;52.93;39.90;;;;;;;;;;4958570;29;20817;-90
2021/12/29 00:59:41;;;;;;;40.93;36.07;;;;;;;;;;4941154;29;20464;-90
2021/12/29 01:02:09;;;;;;;48.23;38.53;;;;;;;;;;4958636;29;20439;-90
2021/12/29 01:04:36;;;;;;;46.27;37.00;;;;;;;;;;4958638;29;20432;-89
2021/12/29 01:07:04;;;;;;;40.10;35.43;;;;;;;;;;4959035;29;20446;-89
2021/12/29 01:09:31;;;;;;;37.33;33.37;;;;;;;;;;4958258;29;20476;-89
2021/12/29 01:11:59;;;;;;;35.70;32.40;;;;;;;;;;4958341;29;20490;-90
2021/12/29 01:14:30;;;;;;;36.50;32.60;;;;;;;;;;4958588;29;21174;-89
2021/12/29 01:16:58;;;;;;;36.13;32.43;;;;;;;;;;4958306;29;20493;-90
2021/12/29 01:19:26;;;;;;;35.93;32.27;;;;;;;;;;4958174;29;20471;-89
2021/12/29 01:21:55;;;;;;;36.50;32.90;;;;;;;;;;4958298;29;20442;-89
2021/12/29 01:24:24;;;;;;;38.30;34.47;;;;;;;;;;4958133;29;20497;-89
2021/12/29 01:26:52;;;;;;;38.07;34.17;;;;;;;;;;4958125;29;20951;-90
2021/12/29 01:29:19;;;;;;;35.70;32.22;;;;;;;;;;4940056;29;20429;-90
2021/12/29 01:31:48;;;;;;;36.47;32.40;;;;;;;;;;4957893;29;20266;-90
2021/12/29 01:34:16;;;;;;;32.43;29.50;;;;;;;;;;4957993;29;20900;-90
2021/12/29 01:36:44;;;;;;;34.47;31.20;;;;;;;;;;4958183;29;20509;-90
2021/12/29 01:39:12;;;;;;;28.37;26.27;;;;;;;;;;4957918;29;20486;-90
2021/12/29 01:41:40;;;;;;;28.97;26.57;;;;;;;;;;4958072;29;20518;-90
2021/12/29 01:44:08;;;;;;;31.17;28.53;;;;;;;;;;4958157;29;20442;-89
2021/12/29 01:46:35;;;;;;;32.57;29.60;;;;;;;;;;4957987;29;20784;-89
2021/12/29 01:49:05;;;;;;;32.60;29.63;;;;;;;;;;4957536;29;20471;-90
2021/12/29 01:51:32;;;;;;;31.67;28.97;;;;;;;;;;4957637;29;20445;-90
2021/12/29 01:54:14;;;;;;;30.97;28.37;;;;;;;;;;4957524;29;20449;-89
2021/12/29 01:56:43;;;;;;;31.17;28.47;;;;;;;;;;4957593;29;20428;-90
2021/12/29 01:59:11;;;;;;;28.37;26.20;;;;;;;;;;4957410;29;20469;-89
2021/12/29 02:01:38;;;;;;;30.17;27.70;;;;;;;;;;4940498;29;20433;-89
2021/12/29 02:04:07;;;;;;;29.30;27.10;;;;;;;;;;4957645;29;20451;-89
2021/12/29 02:06:35;;;;;;;27.10;25.20;;;;;;;;;;4940400;29;20462;-89
2021/12/29 02:09:02;;;;;;;29.67;27.43;;;;;;;;;;4956862;29;20500;-90
2021/12/29 02:11:31;;;;;;;29.50;26.83;;;;;;;;;;4957535;29;20529;-89
2021/12/29 02:14:00;;;;;;;26.27;24.47;;;;;;;;;;4957078;29;20451;-90
2021/12/29 02:16:27;;;;;;;26.02;24.27;;;;;;;;;;4957149;29;20450;-88
2021/12/29 02:18:55;;;;;;;26.67;24.80;;;;;;;;;;4957070;29;20245;-89
2021/12/29 02:21:24;;;;;;;25.80;24.20;;;;;;;;;;4957370;29;20203;-90
2021/12/29 02:26:38;;;;;;;23.67;22.23;;;;;;;;;;4956717;29;20462;-90
2021/12/29 02:29:06;;;;;;;20.50;19.50;;;;;;;;;;4956972;29;20874;-90
2021/12/29 02:31:34;;;;;;;22.77;21.40;;;;;;;;;;4956620;29;20440;-89
2021/12/29 02:34:02;;;;;;;23.93;22.20;;;;;;;;;;4956922;29;20414;-90
2021/12/29 02:36:31;;;;;;;21.77;20.53;;;;;;;;;;4956561;29;20437;-89
2021/12/29 02:38:58;;;;;;;22.60;21.10;;;;;;;;;;4956813;29;20516;-89
2021/12/29 02:41:27;;;;;;;23.60;22.10;;;;;;;;;;4955886;28;20615;-90
2021/12/29 02:43:59;;;;;;;21.40;20.30;;;;;;;;;;4956813;29;20455;-89
2021/12/29 02:46:27;;;;;;;21.30;20.10;;;;;;;;;;4956696;29;20467;-90
2021/12/29 02:48:59;;;;;;;21.90;20.63;;;;;;;;;;4956419;29;20467;-91
2021/12/29 02:51:26;;;;;;;22.20;21.10;;;;;;;;;;4956226;29;20453;-90
2021/12/29 02:53:56;;;;;;;22.20;21.00;;;;;;;;;;4939639;29;21041;-89
2021/12/29 02:56:24;;;;;;;22.50;21.20;;;;;;;;;;4956352;29;20635;-89
2021/12/29 02:58:51;;;;;;;22.07;20.97;;;;;;;;;;4956316;29;20490;-90
2021/12/29 03:01:20;;;;;;;21.30;20.30;;;;;;;;;;4956173;29;20458;-90
2021/12/29 03:03:48;;;;;;;21.20;20.10;;;;;;;;;;4956043;29;20524;-87
2021/12/29 03:06:15;;;;;;;21.00;19.97;;;;;;;;;;4956305;29;20429;-89
2021/12/29 03:08:43;;;;;;;21.57;20.57;;;;;;;;;;4956233;29;20429;-89
2021/12/29 03:11:12;;;;;;;22.30;21.10;;;;;;;;;;4956124;29;20410;-90
2021/12/29 03:13:40;;;;;;;21.30;20.20;;;;;;;;;;4956204;29;20453;-90
2021/12/29 03:16:08;;;;;;;21.13;20.03;;;;;;;;;;4956151;29;20597;-89
2021/12/29 03:18:35;;;;;;;20.90;19.80;;;;;;;;;;4955871;29;20472;-89
2021/12/29 03:21:02;;;;;;;21.00;19.90;;;;;;;;;;4956050;29;20926;-89
2021/12/29 03:23:30;;;;;;;21.00;19.90;;;;;;;;;;4955806;29;20966;-88
2021/12/29 03:25:58;;;;;;;21.77;20.47;;;;;;;;;;4955961;29;20534;-88
2021/12/29 03:28:27;;;;;;;21.93;20.73;;;;;;;;;;4956319;29;20425;-91
2021/12/29 03:30:56;;;;;;;22.13;21.00;;;;;;;;;;4956128;29;20446;-91
2021/12/29 03:33:24;;;;;;;23.80;22.30;;;;;;;;;;4955860;29;20465;-90
2021/12/29 03:35:52;;;;;;;22.52;21.20;;;;;;;;;;4955557;29;20433;-91
2021/12/29 03:38:21;;;;;;;21.90;20.70;;;;;;;;;;4938755;29;20210;-91
2021/12/29 03:40:49;;;;;;;23.03;21.80;;;;;;;;;;4955571;29;21051;-91
2021/12/29 03:43:17;;;;;;;22.20;21.00;;;;;;;;;;4956444;29;20442;-90
2021/12/29 03:45:47;;;;;;;21.57;20.37;;;;;;;;;;4956056;29;20450;-90
2021/12/29 03:48:15;;;;;;;21.53;20.30;;;;;;;;;;4956050;29;20434;-91
2021/12/29 03:50:44;;;;;;;22.13;20.87;;;;;;;;;;4955548;29;20488;-90
2021/12/29 03:53:13;;;;;;;22.10;20.90;;;;;;;;;;4957239;28;20824;-91
2021/12/29 03:55:41;;;;;;;22.13;20.83;;;;;;;;;;4943252;29;20501;-90
2021/12/29 03:58:08;;;;;;;21.58;20.38;;;;;;;;;;4960049;29;20416;-90
2021/12/29 04:00:36;;;;;;;21.95;20.73;;;;;;;;;;4959631;29;20227;-91
2021/12/29 04:03:05;;;;;;;22.30;20.90;;;;;;;;;;4959304;29;20188;-91
2021/12/29 04:05:33;;;;;;;21.40;20.30;;;;;;;;;;4959451;29;20424;-91
2021/12/29 04:08:01;;;;;;;23.67;22.07;;;;;;;;;;4959641;29;20473;-90
2021/12/29 04:10:29;;;;;;;22.30;21.00;;;;;;;;;;4959461;29;20895;-89
2021/12/29 04:12:57;;;;;;;22.53;21.07;;;;;;;;;;4959472;29;20534;-91
2021/12/29 04:15:27;;;;;;;23.27;21.88;;;;;;;;;;4959465;29;20471;-91
2021/12/29 04:17:58;;;;;;;23.37;22.07;;;;;;;;;;4942244;29;20286;-91
2021/12/29 04:23:23;;;;;;;22.00;20.60;;;;;;;;;;4919308;29;20451;-92
2021/12/29 04:25:54;;;;;;;21.97;20.50;;;;;;;;;;4903139;29;20431;-91
2021/12/29 04:28:23;;;;;;;22.83;21.43;;;;;;;;;;4919328;29;20452;-91
2021/12/29 04:30:51;;;;;;;23.57;22.27;;;;;;;;;;4919523;29;20486;-92
2021/12/29 04:33:19;;;;;;;24.00;22.60;;;;;;;;;;4903170;29;20456;-92
2021/12/29 04:35:48;;;;;;;27.20;25.33;;;;;;;;;;4903426;29;20431;-91
2021/12/29 04:38:16;;;;;;;24.07;22.40;;;;;;;;;;4903113;29;20609;-91
2021/12/29 04:40:43;;;;;;;25.70;23.97;;;;;;;;;;4902947;29;20463;-91
2021/12/29 04:43:11;;;;;;;24.60;23.10;;;;;;;;;;4919272;29;20835;-91
2021/12/29 04:45:38;;;;;;;25.00;23.40;;;;;;;;;;4918923;29;20430;-89
2021/12/29 04:48:12;;;;;;;26.27;24.63;;;;;;;;;;4918859;29;20431;-91
2021/12/29 04:50:40;;;;;;;24.67;23.03;;;;;;;;;;4918584;29;20219;-90
2021/12/29 04:53:10;;;;;;;24.30;22.60;;;;;;;;;;4918788;29;20461;-90
2021/12/29 04:55:44;;;;;;;25.03;23.43;;;;;;;;;;4903058;29;20438;-91
2021/12/29 04:58:11;;;;;;;25.37;23.80;;;;;;;;;;4923217;29;20449;-91
2021/12/29 05:00:39;;;;;;;25.40;23.70;;;;;;;;;;4958530;29;20560;-90
2021/12/29 05:03:06;;;;;;;25.10;23.52;;;;;;;;;;4941746;29;20417;-90
2021/12/29 05:08:25;;;;;;;23.23;21.93;;;;;;;;;;4957430;29;20446;-91
2021/12/29 05:10:54;;;;;;;23.33;21.97;;;;;;;;;;4958221;29;20446;-91
2021/12/29 05:13:22;;;;;;;22.60;21.30;;;;;;;;;;4958565;29;20466;-91
2021/12/29 05:15:50;;;;;;;23.73;22.23;;;;;;;;;;4958547;29;20473;-90
2021/12/29 05:18:17;;;;;;;25.73;24.00;;;;;;;;;;4958610;29;20516;-90
2021/12/29 05:20:44;;;;;;;25.00;23.40;;;;;;;;;;4958147;29;20617;-90
2021/12/29 05:23:12;;;;;;;23.13;21.83;;;;;;;;;;4958255;29;20433;-91
2021/12/29 05:25:41;;;;;;;24.40;22.90;;;;;;;;;;4957982;29;20956;-91
2021/12/29 05:28:08;;;;;;;24.23;22.83;;;;;;;;;;4958222;29;20467;-90
2021/12/29 05:30:36;;;;;;;24.57;23.03;;;;;;;;;;4957635;29;20458;-92
2021/12/29 05:33:04;;;;;;;23.60;22.23;;;;;;;;;;4957979;29;20453;-90
2021/12/29 05:35:31;;;;;;;25.33;23.57;;;;;;;;;;4941130;29;20242;-90
2021/12/29 05:37:59;;;;;;;24.37;22.77;;;;;;;;;;4958360;29;20436;-91
2021/12/29 05:40:27;;;;;;;24.60;23.10;;;;;;;;;;4957578;29;20911;-90
2021/12/29 05:42:56;;;;;;;21.27;20.17;;;;;;;;;;4957624;29;20442;-90
2021/12/29 05:45:23;;;;;;;25.57;23.77;;;;;;;;;;4957711;29;20443;-90
2021/12/29 05:47:51;;;;;;;22.83;21.30;;;;;;;;;;4958035;29;20437;-90
2021/12/29 05:50:19;;;;;;;25.23;23.70;;;;;;;;;;4957895;29;20462;-89
2021/12/29 05:52:47;;;;;;;25.52;23.83;;;;;;;;;;4957431;29;20441;-87
2021/12/29 05:55:14;;;;;;;26.67;24.80;;;;;;;;;;4957416;29;20195;-88
2021/12/29 05:57:42;;;;;;;22.00;20.63;;;;;;;;;;4957702;29;20426;-88
2021/12/29 06:00:13;;;;;;;22.93;21.63;;;;;;;;;;4957895;29;20222;-88
2021/12/29 06:02:40;;;;;;;27.20;25.00;;;;;;;;;;4957526;29;20440;-89
2021/12/29 06:05:08;;;;;;;26.33;24.53;;;;;;;;;;4957464;29;20210;-89
2021/12/29 06:07:35;;;;;;;27.00;24.97;;;;;;;;;;4957343;29;20459;-89
2021/12/29 06:10:02;;;;;;;27.80;25.60;;;;;;;;;;4957151;29;20473;-89
2021/12/29 06:12:30;;;;;;;22.93;21.47;;;;;;;;;;4957175;29;20600;-88
2021/12/29 06:14:57;;;;;;;28.10;26.00;;;;;;;;;;4956953;29;20439;-88
2021/12/29 06:17:27;;;;;;;28.07;26.17;;;;;;;;;;4957094;28;20549;-89
2021/12/29 06:19:56;;;;;;;29.73;27.43;;;;;;;;;;4957114;29;21022;-88
2021/12/29 06:22:23;;;;;;;27.83;25.73;;;;;;;;;;4957343;29;20792;-89
2021/12/29 06:24:52;;;;;;;28.80;26.50;;;;;;;;;;4956900;29;20478;-88
2021/12/29 06:27:20;;;;;;;29.67;27.17;;;;;;;;;;4956696;29;20553;-89
2021/12/29 06:29:47;;;;;;;28.43;26.10;;;;;;;;;;4957002;29;20446;-90
2021/12/29 06:32:15;;;;;;;30.53;27.93;;;;;;;;;;4957094;29;20458;-90
2021/12/29 06:34:44;;;;;;;32.17;28.97;;;;;;;;;;4956735;29;20923;-89
2021/12/29 06:37:13;;;;;;;30.20;27.70;;;;;;;;;;4956829;29;20447;-89
2021/12/29 06:39:41;;;;;;;33.50;30.17;;;;;;;;;;4956479;29;20805;-91
2021/12/29 06:42:08;;;;;;;30.53;27.53;;;;;;;;;;4956542;29;20446;-88
2021/12/29 06:44:36;;;;;;;31.60;28.80;;;;;;;;;;4956853;29;20441;-88
2021/12/29 06:47:03;;;;;;;29.10;26.67;;;;;;;;;;4956782;29;20463;-87
2021/12/29 06:49:31;;;;;;;29.03;26.63;;;;;;;;;;4956605;29;20434;-89
2021/12/29 06:52:00;;;;;;;31.60;28.27;;;;;;;;;;4956476;29;20458;-87
2021/12/29 06:54:27;;;;;;;29.70;27.30;;;;;;;;;;4956020;29;20440;-87
2021/12/29 06:56:54;;;;;;;32.17;29.03;;;;;;;;;;4956612;29;20472;-88
2021/12/29 06:59:22;;;;;;;32.33;29.17;;;;;;;;;;4956448;29;20518;-89
2021/12/29 07:01:49;;;;;;;28.67;26.17;;;;;;;;;;4955807;29;20966;-86
2021/12/29 07:04:17;;;;;;;33.27;29.97;;;;;;;;;;4956072;29;20871;-86
2021/12/29 07:06:44;;;;;;;30.07;27.53;;;;;;;;;;4956045;29;20450;-86
2021/12/29 07:09:13;;;;;;;29.40;26.80;;;;;;;;;;4955918;29;20916;-89
2021/12/29 07:11:41;;;;;;;46.33;28.10;;;;;;;;;;4956150;29;20481;-88
2021/12/29 07:14:09;;;;;;;29.53;27.03;;;;;;;;;;4956471;29;20462;-89
2021/12/29 07:16:37;;;;;;;30.00;27.10;;;;;;;;;;4956137;29;20627;-85
2021/12/29 07:19:05;;;;;;;33.20;30.17;;;;;;;;;;4956028;29;20442;-88
2021/12/29 07:21:32;;;;;;;31.83;28.73;;;;;;;;;;4956359;29;20553;-91
2021/12/29 07:23:59;;;;;;;25.90;24.13;;;;;;;;;;4956414;29;20505;-91
2021/12/29 07:26:28;;;;;;;30.00;27.37;;;;;;;;;;4956198;29;20451;-88
2021/12/29 07:28:56;;;;;;;28.87;26.50;;;;;;;;;;4955538;28;20470;-88
2021/12/29 07:31:27;;;;;;;28.77;26.60;;;;;;;;;;4956580;29;20463;-95
2021/12/29 07:33:55;;;;;;;26.23;24.23;;;;;;;;;;4939821;29;20218;-87
2021/12/29 07:36:22;;;;;;;28.37;25.90;;;;;;;;;;4955921;29;20470;-88
2021/12/29 07:38:50;;;;;;;26.20;24.20;;;;;;;;;;4956194;29;20429;-88
2021/12/29 07:41:17;;;;;;;27.25;25.15;;;;;;;;;;4955768;29;20219;-89
2021/12/29 07:43:46;;;;;;;26.97;24.27;;;;;;;;;;4955874;29;20207;-89
2021/12/29 07:46:14;;;;;;;26.47;24.43;;;;;;;;;;4956253;29;20440;-90
2021/12/29 07:48:41;;;;;;;24.77;23.07;;;;;;;;;;4955631;29;20429;-90
2021/12/29 07:51:09;;;;;;;25.57;23.30;;;;;;;;;;4956066;29;20931;-90
2021/12/29 07:53:37;;;;;;;26.40;24.50;;;;;;;;;;4955468;29;20449;-91
2021/12/29 07:56:06;;;;;;;26.53;24.40;;;;;;;;;;4955613;29;20516;-91
2021/12/29 07:58:34;;;;;;;24.77;23.00;;;;;;;;;;4955853;29;20480;-91
2021/12/29 08:01:03;;;;;;;26.50;24.43;;;;;;;;;;4955706;29;20551;-90
2021/12/29 08:03:30;;;;;;;25.67;23.67;;;;;;;;;;4938406;29;20510;-88
2021/12/29 08:05:58;;;;;;;25.07;23.27;;;;;;;;;;4955847;29;20454;-88
2021/12/29 08:08:25;;;;;;;25.97;24.10;;;;;;;;;;4955883;29;20450;-91
2021/12/29 08:10:53;;;;;;;24.70;22.90;;;;;;;;;;4955856;29;20440;-90
2021/12/29 08:13:20;;;;;;;22.40;21.10;;;;;;;;;;4956128;29;20473;-90
2021/12/29 08:15:48;;;;;;;25.60;23.80;;;;;;;;;;4955698;29;20888;-90
2021/12/29 08:18:16;;;;;;;27.13;25.23;;;;;;;;;;4955162;29;20491;-89
2021/12/29 08:20:44;;;;;;;26.17;24.37;;;;;;;;;;4955240;29;20843;-90
2021/12/29 08:23:12;;;;;;;24.70;23.07;;;;;;;;;;4938482;29;20417;-85
2021/12/29 08:25:39;;;;;;;23.97;22.50;;;;;;;;;;4955512;29;20424;-94
2021/12/29 08:28:07;;;;;;;26.10;24.40;;;;;;;;;;4948008;29;20513;-89
2021/12/29 08:30:35;;;;;;;25.60;23.90;;;;;;;;;;4936356;29;20426;-86
2021/12/29 08:33:02;;;;;;;24.90;23.10;;;;;;;;;;4970912;28;20807;-86
2021/12/29 08:35:31;;;;;;;24.50;22.90;;;;;;;;;;4957751;28;20428;-93
2021/12/29 08:37:59;;;;;;;25.57;23.60;;;;;;;;;;4974858;28;20435;-91
2021/12/29 08:40:27;;;;;;;25.77;23.63;;;;;;;;;;4960515;28;20450;-92
2021/12/29 08:42:58;;;;;;;26.48;24.58;;;;;;;;;;4978319;28;20412;-93
2021/12/29 08:45:26;;;;;;;26.17;24.23;;;;;;;;;;4978049;28;20304;-90
2021/12/29 08:47:55;;;;;;;26.47;24.53;;;;;;;;;;4977753;28;20462;-87
2021/12/29 08:50:25;;;;;;;25.97;24.07;;;;;;;;;;4977756;28;21011;-86
2021/12/29 08:52:54;;;;;;;26.17;24.23;;;;;;;;;;4977828;28;20445;-87
2021/12/29 08:55:21;;;;;;;26.87;24.77;;;;;;;;;;4978030;28;20476;-87
2021/12/29 08:57:49;;;;;;;26.13;24.03;;;;;;;;;;4960563;28;20967;-86
2021/12/29 09:00:18;;;;;;;26.63;24.50;;;;;;;;;;4977630;28;20487;-87
2021/12/29 09:02:46;;;;;;;25.60;23.60;;;;;;;;;;4977532;28;20417;-87
2021/12/29 09:05:16;;;;;;;25.20;23.40;;;;;;;;;;4977259;28;20484;-86
2021/12/29 09:07:43;;;;;;;26.73;24.63;;;;;;;;;;4977776;28;20453;-85
2021/12/29 09:10:14;;;;;;;25.77;23.77;;;;;;;;;;4977012;28;20428;-95
2021/12/29 09:12:42;;;;;;;24.77;22.83;;;;;;;;;;4977601;28;20478;-83
2021/12/29 09:15:10;;;;;;;25.53;23.63;;;;;;;;;;4977655;28;20461;-89
2021/12/29 09:17:37;;;;;;;24.87;22.80;;;;;;;;;;4977851;28;20485;-90
2021/12/29 09:20:05;;;;;;;25.30;23.40;;;;;;;;;;4977479;28;20437;-89
2021/12/29 09:22:33;;;;;;;27.23;25.17;;;;;;;;;;4977004;28;20497;-89
2021/12/29 09:25:00;;;;;;;24.67;22.70;;;;;;;;;;4977162;28;20194;-91
2021/12/29 09:27:29;;;;;;;26.20;24.10;;;;;;;;;;4977650;28;20500;-89
2021/12/29 09:29:57;;;;;;;25.80;23.60;;;;;;;;;;4977631;28;20420;-90
2021/12/29 09:32:29;;;;;;;29.40;26.53;;;;;;;;;;4960058;28;20458;-89
2021/12/29 09:34:59;;;;;;;28.67;26.37;;;;;;;;;;4977386;28;20939;-90
2021/12/29 09:37:27;;;;;;;27.50;25.10;;;;;;;;;;4977232;28;20418;-90
2021/12/29 09:39:54;;;;;;;29.53;26.73;;;;;;;;;;4977269;28;20454;-90
2021/12/29 09:42:21;;;;;;;27.57;25.17;;;;;;;;;;4977427;28;20485;-90
2021/12/29 09:44:52;;;;;;;31.43;26.70;;;;;;;;;;4960058;28;20552;-92
2021/12/29 09:47:20;;;;;;;30.15;27.55;;;;;;;;;;4960863;28;20879;-90
2021/12/29 09:49:47;;;;;;;28.57;25.87;;;;;;;;;;4977200;28;20249;-89
2021/12/29 09:52:14;;;;;;;29.43;26.77;;;;;;;;;;4976521;28;20462;-89
2021/12/29 09:54:42;;;;;;;31.33;28.27;;;;;;;;;;4976668;28;20441;-91
2021/12/29 09:57:09;;;;;;;28.30;26.00;;;;;;;;;;4977384;28;20445;-89
2021/12/29 09:59:36;;;;;;;30.67;27.43;;;;;;;;;;4976439;28;20441;-82
2021/12/29 10:02:06;;;;;;;29.67;27.07;;;;;;;;;;4976561;28;20899;-89
2021/12/29 10:04:36;;;;;;;29.70;26.90;;;;;;;;;;4976987;28;20475;-87
2021/12/29 10:07:11;;;;;;;29.20;26.80;;;;;;;;;;4959972;28;20431;-87
2021/12/29 10:09:38;;;;;;;29.53;27.00;;;;;;;;;;4976610;28;20505;-87
2021/12/29 10:12:08;;;;;;;29.87;27.23;;;;;;;;;;4976465;28;21007;-88
2021/12/29 10:14:36;;;;;;;27.73;25.63;;;;;;;;;;4959663;28;20890;-92
2021/12/29 10:17:10;;;;;;;30.00;27.47;;;;;;;;;;4976587;28;20527;-89
2021/12/29 10:19:40;;;;;;;31.20;28.60;;;;;;;;;;4976927;28;20480;-87
2021/12/29 10:22:07;;;;;;;31.83;28.90;;;;;;;;;;4959421;28;20485;-89
2021/12/29 10:24:36;;;;;;;33.20;30.33;;;;;;;;;;4976974;28;20198;-87
2021/12/29 10:27:04;;;;;;;33.50;30.30;;;;;;;;;;4977031;28;20207;-87
2021/12/29 10:29:31;;;;;;;36.43;33.03;;;;;;;;;;4977081;28;20202;-95
2021/12/29 10:32:01;;;;;;;34.73;31.37;;;;;;;;;;4978330;28;20424;-89
2021/12/29 10:34:30;;;;;;;36.10;32.67;;;;;;;;;;4976409;28;20424;-91
2021/12/29 10:36:59;;;;;;;37.37;33.80;;;;;;;;;;4976539;28;20464;-94
2021/12/29 10:39:29;;;;;;;38.28;34.78;;;;;;;;;;4975785;28;20862;-90
2021/12/29 10:41:58;;;;;;;30.30;27.70;;;;;;;;;;4975841;28;20222;-89
2021/12/29 10:44:27;;;;;;;32.27;29.33;;;;;;;;;;4976004;28;20454;-93
2021/12/29 10:46:56;;;;;;;34.40;31.40;;;;;;;;;;4976295;28;20433;-95
2021/12/29 10:49:24;;;;;;;32.93;29.97;;;;;;;;;;4975922;28;20424;-91
2021/12/29 10:51:52;;;;;;;29.53;27.03;;;;;;;;;;4975965;28;20486;-86
2021/12/29 10:54:24;;;;;;;29.83;27.33;;;;;;;;;;4975587;28;20425;-85
2021/12/29 10:56:59;;;;;;;31.43;28.80;;;;;;;;;;4976166;28;20807;-86
2021/12/29 10:59:30;;;;;;;33.10;30.33;;;;;;;;;;4975474;28;20914;-86
2021/12/29 11:01:57;;;;;;;31.03;28.10;;;;;;;;;;4975405;28;20822;-91
2021/12/29 11:04:25;;;;;;;32.83;30.17;;;;;;;;;;4975667;28;20844;-90
2021/12/29 11:06:56;;;;;;;30.67;28.13;;;;;;;;;;4976042;28;21153;-93
2021/12/29 11:09:26;;;;;;;29.43;27.13;;;;;;;;;;4975377;28;20500;-85
2021/12/29 11:11:53;;;;;;;30.80;28.40;;;;;;;;;;4975453;28;20517;-90
2021/12/29 11:14:23;;;;;;;27.53;25.53;;;;;;;;;;4975507;28;20798;-91
2021/12/29 11:17:01;;;;;;;29.70;27.60;;;;;;;;;;4975300;28;20558;-91
2021/12/29 11:19:28;;;;;;;27.83;25.83;;;;;;;;;;4958342;28;20424;-90
2021/12/29 11:22:06;;;;;;;28.30;26.20;;;;;;;;;;4975501;28;20481;-93
2021/12/29 11:24:34;;;;;;;28.80;26.60;;;;;;;;;;4975563;28;20424;-89
2021/12/29 11:27:09;;;;;;;27.83;25.77;;;;;;;;;;4975424;28;20493;-91
2021/12/29 11:29:36;;;;;;;29.17;26.83;;;;;;;;;;4975185;28;20423;-93
2021/12/29 11:32:07;;;;;;;27.63;25.63;;;;;;;;;;4974995;28;20490;-91
2021/12/29 11:34:35;;;;;;;29.83;27.53;;;;;;;;;;4957943;28;20461;-93
2021/12/29 11:37:04;;;;;;;31.00;28.50;;;;;;;;;;4975086;28;20410;-93
2021/12/29 11:39:32;;;;;;;30.90;28.60;;;;;;;;;;4975105;28;20441;-90
2021/12/29 11:42:01;;;;;;;32.80;30.20;;;;;;;;;;4975493;28;20527;-91
2021/12/29 11:44:29;;;;;;;32.07;29.57;;;;;;;;;;4951104;29;20426;-92
2021/12/29 11:46:56;;;;;;;40.83;37.10;;;;;;;;;;4955260;29;20561;-91
2021/12/29 11:49:23;;;;;;;39.20;35.70;;;;;;;;;;4954781;29;20458;-89
2021/12/29 11:51:53;;;;;;;29.33;27.03;;;;;;;;;;4956012;29;20465;-92
2021/12/29 11:54:23;;;;;;;31.27;28.47;;;;;;;;;;4955735;29;20425;-91
2021/12/29 11:56:51;;;;;;;32.80;29.97;;;;;;;;;;4946777;29;20443;-91
2021/12/29 11:59:19;;;;;;;34.10;30.83;;;;;;;;;;4955637;29;20996;-92
2021/12/29 12:01:57;;;;;;;37.23;34.00;;;;;;;;;;4955569;29;20464;-92
2021/12/29 12:04:24;;;;;;;33.40;30.57;;;;;;;;;;4954683;29;20432;-93
2021/12/29 12:07:01;;;;;;;35.93;32.73;;;;;;;;;;4954605;29;20451;-91
2021/12/29 12:09:28;;;;;;;34.77;31.70;;;;;;;;;;4955290;29;20425;-92
2021/12/29 12:11:56;;;;;;;33.20;30.13;;;;;;;;;;4955686;29;20529;-90
2021/12/29 12:14:26;;;;;;;33.10;30.50;;;;;;;;;;4957433;28;20414;-92
2021/12/29 12:16:55;;;;;;;36.93;33.53;;;;;;;;;;4964000;28;20452;-91
2021/12/29 12:19:24;;;;;;;35.53;32.43;;;;;;;;;;4978537;28;20469;-90
2021/12/29 12:22:02;;;;;;;36.17;32.90;;;;;;;;;;4978468;28;20449;-94
2021/12/29 12:24:30;;;;;;;32.00;29.20;;;;;;;;;;4977277;28;20527;-91
2021/12/29 12:26:58;;;;;;;31.67;28.87;;;;;;;;;;4979211;28;20445;-92
2021/12/29 12:29:29;;;;;;;32.07;29.23;;;;;;;;;;4979615;28;20440;-95
2021/12/29 12:32:07;;;;;;;30.87;28.67;;;;;;;;;;4985373;28;20826;-96
2021/12/29 12:34:35;;;;;;;31.30;28.47;;;;;;;;;;4990045;28;20440;-89
2021/12/29 12:37:13;;;;;;;32.30;29.30;;;;;;;;;;4981148;28;20438;-96
2021/12/29 12:39:41;;;;;;;37.53;34.33;;;;;;;;;;4972308;28;20416;-94
2021/12/29 12:42:18;;;;;;;34.10;30.67;;;;;;;;;;4994497;28;20495;-96
2021/12/29 12:44:47;;;;;;;38.17;34.67;;;;;;;;;;4986721;28;20433;-96
2021/12/29 12:47:16;;;;;;;38.87;35.27;;;;;;;;;;5041408;23;20830;-95
2021/12/29 12:49:49;;;;;;;36.13;32.60;;;;;;;;;;4985139;28;20419;-96
2021/12/29 12:52:17;;;;;;;35.27;31.90;;;;;;;;;;4984352;28;20489;-96
2021/12/29 12:54:46;;;;;;;31.57;28.93;;;;;;;;;;4985730;28;20416;-94
2021/12/29 12:57:14;;;;;;;33.07;30.07;;;;;;;;;;4986261;28;20522;-93
2021/12/29 12:59:43;;;;;;;32.53;29.93;;;;;;;;;;4984692;28;20467;-94
2021/12/29 13:02:16;;;;;;;35.53;32.27;;;;;;;;;;4983990;28;20459;-94
2021/12/29 13:04:44;;;;;;;33.23;30.27;;;;;;;;;;4980212;28;20424;-94
2021/12/29 13:07:13;;;;;;;34.80;31.73;;;;;;;;;;4984534;28;20469;-96
2021/12/29 13:09:47;;;;;;;35.23;32.17;;;;;;;;;;4986661;28;20428;-96
2021/12/29 13:12:14;;;;;;;31.13;28.43;;;;;;;;;;4988672;28;20467;-95
2021/12/29 13:14:42;;;;;;;32.17;29.20;;;;;;;;;;4985573;28;20438;-96
2021/12/29 13:17:10;;;;;;;33.10;30.40;;;;;;;;;;4981783;28;20454;-88
2021/12/29 13:19:39;;;;;;;32.13;29.40;;;;;;;;;;4977428;28;20853;-84
2021/12/29 13:22:06;;;;;;;35.40;32.10;;;;;;;;;;4976637;28;20483;-84
2021/12/29 13:24:33;;;;;;;35.80;32.83;;;;;;;;;;4976520;28;20435;-84
2021/12/29 13:27:01;;;;;;;35.90;32.90;;;;;;;;;;4976047;28;20804;-83
2021/12/29 13:29:28;;;;;;;33.00;30.10;;;;;;;;;;4976322;28;20517;-84
2021/12/29 13:31:56;;;;;;;32.50;29.70;;;;;;;;;;4976273;28;20845;-83
2021/12/29 13:34:29;;;;;;;33.53;30.43;;;;;;;;;;4975376;28;21032;-84
2021/12/29 13:36:58;;;;;;;34.20;31.03;;;;;;;;;;4976357;28;20445;-85
2021/12/29 13:39:25;;;;;;;34.43;31.30;;;;;;;;;;4976443;28;20848;-82
2021/12/29 13:41:52;;;;;;;32.87;29.97;;;;;;;;;;4976314;28;20517;-84
2021/12/29 13:44:21;;;;;;;33.70;30.90;;;;;;;;;;4976349;28;20417;-84
2021/12/29 13:46:49;;;;;;;34.10;30.87;;;;;;;;;;4975056;28;20988;-85
2021/12/29 13:49:16;;;;;;;34.40;31.10;;;;;;;;;;4976362;28;20461;-84
2021/12/29 13:51:44;;;;;;;34.60;31.30;;;;;;;;;;4975241;28;20923;-85
2021/12/29 13:54:14;;;;;;;35.93;32.40;;;;;;;;;;4976304;28;20453;-85
2021/12/29 13:56:43;;;;;;;35.00;31.43;;;;;;;;;;4976433;28;20411;-86
2021/12/29 13:59:11;;;;;;;36.10;32.80;;;;;;;;;;4976502;28;20429;-85
2021/12/29 14:01:40;;;;;;;36.57;32.67;;;;;;;;;;4976553;28;20982;-84
2021/12/29 14:04:08;;;;;;;36.50;33.00;;;;;;;;;;4975872;28;20542;-83
2021/12/29 14:06:36;;;;;;;34.87;31.53;;;;;;;;;;4976305;28;20432;-84
2021/12/29 14:09:04;;;;;;;36.60;32.90;;;;;;;;;;4975909;28;20440;-83
2021/12/29 14:11:33;;;;;;;35.10;32.07;;;;;;;;;;4975866;28;20437;-85
2021/12/29 14:14:01;;;;;;;35.37;32.23;;;;;;;;;;4976248;28;20465;-85
2021/12/29 14:16:31;;;;;;;36.40;33.20;;;;;;;;;;4976325;28;20429;-84
2021/12/29 14:19:00;;;;;;;36.17;32.97;;;;;;;;;;4976094;28;20457;-85
2021/12/29 14:21:29;;;;;;;37.90;34.20;;;;;;;;;;4975882;28;20428;-85
2021/12/29 14:23:57;;;;;;;38.20;35.00;;;;;;;;;;4975773;28;20463;-85
2021/12/29 14:26:26;;;;;;;38.77;34.90;;;;;;;;;;4976019;28;20443;-85
2021/12/29 14:28:56;;;;;;;37.80;34.30;;;;;;;;;;4975855;28;20446;-85
2021/12/29 14:31:25;;;;;;;38.83;35.07;;;;;;;;;;4975884;28;20464;-86